Vinga — LACP7 — position and weather

sailwx.info

Track history (hours):
 
Tides and Currents Weather Stations Pressure Air Temp Water Temp Dewpoint Dewpoint Depression Visibility Wind Speed Wind Dir Waves Ship Positions

Vinga

Last reported at 2018-Jun-22 19:53 UTC. Time now 2018-Jun-24 05:12 UTC.
Position N 36°44' E 023°56'.

Length 274 m; draft 9 m.

Type: Tanker. MMSI: 257792000.

Date/timePositionNaut miles runAvg speedWind from/ knotsBaromVisibWave heightAir tempDewpointWater temp
2018-Jun-22 19:53N 36°44' E 023°56'512.8
2018-Jun-22 19:30N 36°40' E 023°52'612.9
2018-Jun-22 19:00N 36°35' E 023°47'  
2018-Jun-20 11:25N 44°32' E 013°38'513.3
2018-Jun-20 11:00N 44°37' E 013°34'713.3
2018-Jun-20 10:30N 44°42' E 013°28'713.3
2018-Jun-20 10:00N 44°48' E 013°23'713.1
2018-Jun-20 09:30N 44°53' E 013°18'613.2
2018-Jun-20 09:00N 44°59' E 013°13'713.5
2018-Jun-20 08:30N 45°04' E 013°07'713.4
2018-Jun-20 08:00N 45°10' E 013°03'713.5
2018-Jun-20 07:30N 45°17' E 013°01'713.7
2018-Jun-20 07:00N 45°23' E 012°59'612.7
2018-Jun-20 06:30N 45°28' E 013°05'714.2
2018-Jun-20 06:00N 45°32' E 013°14'714.1
2018-Jun-20 05:30N 45°35' E 013°23'713.7
2018-Jun-20 05:00N 45°37' E 013°32'612.5
2018-Jun-20 04:30N 45°37' E 013°41'3 5.4
2018-Jun-20 03:58N 45°37' E 013°45'1 1.0
2018-Jun-20 02:57N 45°37' E 013°47'0 0.0
2018-Jun-20 02:21N 45°37' E 013°47'0 0.0
2018-Jun-20 01:51N 45°37' E 013°47'0 0.0
2018-Jun-20 01:21N 45°37' E 013°47'0 0.0
2018-Jun-20 00:45N 45°37' E 013°47'0 0.0
2018-Jun-20 00:27N 45°37' E 013°47'0 0.0
2018-Jun-19 23:57N 45°37' E 013°47'0 0.0
2018-Jun-19 23:27N 45°37' E 013°47'0 0.0
2018-Jun-19 22:51N 45°37' E 013°47'0 0.0
2018-Jun-19 22:27N 45°37' E 013°47'0 0.0
2018-Jun-19 21:27N 45°37' E 013°47'0 0.0
2018-Jun-19 20:57N 45°37' E 013°47'0 0.0
2018-Jun-19 20:27N 45°37' E 013°47'0 0.0
2018-Jun-19 19:57N 45°37' E 013°47'0 0.0
2018-Jun-18 17:13N 45°37' E 013°47'0 0.2
2018-Jun-18 17:00N 45°37' E 013°46'0 0.9
2018-Jun-18 16:30N 45°37' E 013°46'2 4.6
2018-Jun-18 16:00N 45°37' E 013°43'2 3.0
2018-Jun-18 15:30N 45°37' E 013°40'1 1.4
2018-Jun-18 15:00N 45°38' E 013°41'0 0.0
2018-Jun-18 14:30N 45°38' E 013°41'0 0.0
2018-Jun-18 14:00N 45°38' E 013°41'0 0.0
2018-Jun-18 13:30N 45°38' E 013°41'0 0.0
2018-Jun-18 13:00N 45°38' E 013°41'0 0.0
2018-Jun-18 12:30N 45°38' E 013°41'0 0.0
2018-Jun-18 11:54N 45°38' E 013°41'0 0.0
2018-Jun-18 11:24N 45°38' E 013°41'0 0.0
2018-Jun-18 11:00N 45°38' E 013°41'0 0.0
2018-Jun-18 10:30N 45°38' E 013°41'0 0.0
2018-Jun-18 09:57N 45°38' E 013°41'0 0.0
2018-Jun-18 09:30N 45°38' E 013°41'0 0.0
2018-Jun-18 08:57N 45°38' E 013°41'0 0.0
2018-Jun-18 08:24N 45°38' E 013°41'0 0.1
2018-Jun-18 08:00N 45°38' E 013°41'0 0.1
2018-Jun-18 07:30N 45°38' E 013°41'0 0.0
2018-Jun-18 07:00N 45°38' E 013°41'0 0.0
2018-Jun-18 06:30N 45°38' E 013°41'0 0.0
2018-Jun-18 06:00N 45°38' E 013°41'0 0.0
2018-Jun-18 05:27N 45°38' E 013°41'0 0.0
2018-Jun-18 04:57N 45°38' E 013°41'0 0.1
2018-Jun-18 04:30N 45°38' E 013°41'0 0.0
2018-Jun-18 04:00N 45°38' E 013°41'0 0.0
2018-Jun-18 03:30N 45°38' E 013°41'0 0.0
2018-Jun-18 02:51N 45°38' E 013°41'0 0.0
2018-Jun-18 02:30N 45°38' E 013°41'0 0.0
2018-Jun-18 02:00N 45°38' E 013°41'0 0.0
2018-Jun-18 01:30N 45°38' E 013°41'0 0.0
2018-Jun-18 00:54N 45°38' E 013°41'0 0.0
2018-Jun-18 00:30N 45°38' E 013°41'0 0.0
2018-Jun-18 00:00N 45°38' E 013°41'0 0.0
2018-Jun-17 23:30N 45°38' E 013°41'0 0.0
2018-Jun-17 23:00N 45°38' E 013°41'0 0.0
2018-Jun-17 22:30N 45°38' E 013°41'0 0.0
2018-Jun-17 22:00N 45°38' E 013°41'0 0.0
2018-Jun-17 21:30N 45°38' E 013°41'0 0.0
2018-Jun-17 21:00N 45°38' E 013°41'0 0.0
2018-Jun-17 20:30N 45°38' E 013°41'0 0.0
2018-Jun-17 20:00N 45°38' E 013°41'0 0.0
2018-Jun-17 19:30N 45°38' E 013°41'0 0.0
2018-Jun-17 19:00N 45°38' E 013°41'0 0.0
2018-Jun-17 18:30N 45°38' E 013°41'0 0.0
2018-Jun-17 18:00N 45°38' E 013°41'0 0.0
2018-Jun-17 17:18N 45°38' E 013°41'0 0.0
2018-Jun-17 16:57N 45°38' E 013°41'0 0.0
2018-Jun-17 16:30N 45°38' E 013°41'0 0.0
2018-Jun-17 16:00N 45°38' E 013°41'0 0.0
2018-Jun-17 15:27N 45°38' E 013°41'0 0.0
2018-Jun-17 15:00N 45°38' E 013°41'0 0.0
2018-Jun-17 14:30N 45°38' E 013°41'0 0.0
2018-Jun-17 14:00N 45°38' E 013°41'0 0.0
2018-Jun-17 13:30N 45°38' E 013°41'0 0.0
2018-Jun-17 13:00N 45°38' E 013°41'0 0.1
2018-Jun-17 12:30N 45°38' E 013°41'0 0.1
2018-Jun-17 12:00N 45°38' E 013°41'0 0.0
2018-Jun-17 11:30N 45°38' E 013°41'0 0.0
2018-Jun-17 11:00N 45°38' E 013°41'0 0.0
2018-Jun-17 10:30N 45°38' E 013°41'0 0.0
2018-Jun-17 09:57N 45°38' E 013°41'0 0.0
2018-Jun-17 09:24N 45°38' E 013°41'0 0.0
2018-Jun-17 08:57N 45°38' E 013°41'0 0.0
2018-Jun-17 08:30N 45°38' E 013°41'0 0.0
2018-Jun-17 08:00N 45°38' E 013°41'0 0.0
2018-Jun-17 07:30N 45°38' E 013°41'0 0.0
2018-Jun-17 07:00N 45°38' E 013°41'0 0.0
2018-Jun-17 06:30N 45°38' E 013°41'0 0.0
2018-Jun-17 06:00N 45°38' E 013°41'0 0.0
2018-Jun-17 05:27N 45°38' E 013°41'0 0.0
2018-Jun-17 05:00N 45°38' E 013°41'0 0.0
2018-Jun-17 04:27N 45°38' E 013°41'0 0.0
2018-Jun-17 04:00N 45°38' E 013°41'0 0.0
2018-Jun-17 03:27N 45°38' E 013°41'0 0.0
2018-Jun-17 02:54N 45°38' E 013°41'0 0.0
2018-Jun-17 02:18N 45°38' E 013°41'0 0.0
2018-Jun-17 02:00N 45°38' E 013°41'0 0.0
2018-Jun-17 01:30N 45°38' E 013°41'0 0.0
2018-Jun-17 01:00N 45°38' E 013°41'0 0.0
2018-Jun-17 00:30N 45°38' E 013°41'0 0.0
2018-Jun-17 00:00N 45°38' E 013°41'0 0.0
2018-Jun-16 23:24N 45°38' E 013°41'0 0.0
2018-Jun-16 22:57N 45°38' E 013°41'0 0.0
2018-Jun-16 22:30N 45°38' E 013°41'0 0.0
2018-Jun-16 22:00N 45°38' E 013°41'0 0.0
2018-Jun-16 21:30N 45°38' E 013°41'0 0.0
2018-Jun-16 21:00N 45°38' E 013°41'0 0.0
2018-Jun-16 20:30N 45°38' E 013°41'0 0.0
2018-Jun-16 20:00N 45°38' E 013°41'0 0.1
2018-Jun-16 19:30N 45°38' E 013°41'0 0.1
2018-Jun-16 19:01N 45°38' E 013°41'2 3.5
2018-Jun-16 18:30N 45°37' E 013°39'4 7.3
2018-Jun-16 18:00N 45°36' E 013°34'4 8.6
2018-Jun-16 17:31N 45°34' E 013°28'3 6.7
2018-Jun-16 17:00N 45°31' E 013°25'610.9
2018-Jun-16 16:30N 45°29' E 013°18'611.5
2018-Jun-16 16:00N 45°27' E 013°11'611.9
2018-Jun-16 15:30N 45°25' E 013°03'611.6
2018-Jun-16 15:01N 45°24' E 012°54'2 4.5
2018-Jun-16 14:31N 45°23' E 012°51'0 0.1
2018-Jun-16 13:58N 45°23' E 012°51'0 0.0
2018-Jun-16 13:28N 45°23' E 012°51'0 0.0
2018-Jun-16 12:55N 45°23' E 012°51'0 0.0
2018-Jun-16 12:28N 45°23' E 012°51'0 0.0
2018-Jun-16 11:58N 45°23' E 012°51'0 0.0
2018-Jun-16 11:25N 45°23' E 012°51'0 0.0
2018-Jun-16 10:58N 45°23' E 012°51'0 0.0
2018-Jun-16 10:28N 45°23' E 012°51'0 0.0
2018-Jun-16 09:52N 45°23' E 012°51'0 0.0
2018-Jun-16 09:25N 45°23' E 012°51'0 0.0
2018-Jun-16 08:55N 45°23' E 012°51'0 0.0
2018-Jun-16 08:28N 45°23' E 012°51'0 0.0
2018-Jun-16 07:58N 45°23' E 012°51'0 0.0
2018-Jun-16 07:28N 45°23' E 012°51'0 0.0
2018-Jun-16 06:55N 45°23' E 012°51'0 0.0
2018-Jun-16 06:22N 45°23' E 012°51'0 0.0
2018-Jun-16 05:58N 45°23' E 012°51'0 0.0
2018-Jun-16 05:22N 45°23' E 012°51'0 0.0
2018-Jun-16 04:55N 45°23' E 012°51'0 0.0
2018-Jun-16 04:28N 45°23' E 012°51'0 0.0
2018-Jun-16 03:58N 45°23' E 012°51'0 0.1
2018-Jun-16 03:28N 45°23' E 012°51'0 0.0
2018-Jun-16 02:58N 45°23' E 012°51'0 0.0
2018-Jun-16 02:22N 45°23' E 012°51'0 0.0
2018-Jun-16 01:52N 45°23' E 012°51'0 0.0
2018-Jun-16 01:25N 45°23' E 012°51'0 0.0
2018-Jun-16 00:55N 45°23' E 012°51'0 0.1
2018-Jun-16 00:28N 45°23' E 012°51'0 0.1
2018-Jun-15 23:58N 45°23' E 012°51'0 0.1
2018-Jun-15 23:28N 45°23' E 012°51'0 0.0
2018-Jun-15 22:58N 45°23' E 012°51'0 0.0
2018-Jun-15 22:25N 45°23' E 012°51'0 0.0
2018-Jun-15 21:58N 45°23' E 012°51'0 0.0
2018-Jun-15 21:28N 45°23' E 012°51'0 0.0
2018-Jun-15 20:58N 45°23' E 012°51'0 0.0
2018-Jun-15 20:25N 45°23' E 012°51'0 0.0
2018-Jun-15 19:58N 45°23' E 012°51'0 0.1
2018-Jun-15 19:28N 45°23' E 012°51'0 0.0
2018-Jun-15 18:58N 45°23' E 012°51'0 0.0
2018-Jun-15 18:22N 45°23' E 012°51'0 0.0
2018-Jun-15 17:49N 45°23' E 012°51'0 0.0
2018-Jun-15 17:28N 45°23' E 012°51'0 0.0
2018-Jun-15 16:58N 45°23' E 012°51'0 0.1
2018-Jun-15 16:28N 45°23' E 012°51'0 0.0
2018-Jun-15 15:58N 45°23' E 012°51'0 0.0
2018-Jun-15 15:28N 45°23' E 012°51'0 0.0
2018-Jun-15 14:58N 45°23' E 012°51'0 0.0
2018-Jun-15 14:19N 45°23' E 012°51'0 0.0
2018-Jun-15 13:52N 45°23' E 012°51'0 0.0
2018-Jun-15 13:22N 45°23' E 012°51'0 0.0
2018-Jun-15 12:58N 45°23' E 012°51'0 0.0
2018-Jun-15 12:28N 45°23' E 012°51'0 0.0
2018-Jun-15 11:55N 45°23' E 012°51'0 0.0
2018-Jun-15 11:16N 45°23' E 012°51'0 0.0
2018-Jun-15 10:58N 45°23' E 012°51'0 0.0
2018-Jun-15 10:22N 45°23' E 012°51'0 0.0
2018-Jun-15 09:52N 45°23' E 012°51'0 0.0
2018-Jun-15 09:25N 45°23' E 012°51'0 0.0
2018-Jun-15 08:58N 45°23' E 012°51'0 0.0
2018-Jun-15 08:28N 45°23' E 012°51'0 0.0
2018-Jun-15 07:55N 45°23' E 012°51'0 0.0
2018-Jun-15 07:28N 45°23' E 012°51'0 0.0
2018-Jun-15 06:55N 45°23' E 012°51'0 0.0
2018-Jun-15 06:25N 45°23' E 012°51'0 0.0
2018-Jun-15 05:58N 45°23' E 012°51'0 0.0
2018-Jun-15 05:28N 45°23' E 012°51'0 0.0
2018-Jun-15 04:52N 45°23' E 012°51'0 0.0
2018-Jun-15 04:28N 45°23' E 012°51'0 0.0
2018-Jun-15 03:52N 45°23' E 012°51'0 0.0
2018-Jun-15 03:28N 45°23' E 012°51'0 0.0
2018-Jun-15 02:58N 45°23' E 012°51'0 0.0
2018-Jun-15 02:28N 45°23' E 012°51'0 0.0
2018-Jun-15 01:58N 45°23' E 012°51'0 0.0
2018-Jun-15 01:28N 45°23' E 012°51'0 0.0
2018-Jun-15 00:58N 45°23' E 012°51'0 0.0
2018-Jun-15 00:25N 45°23' E 012°51'0 0.1
2018-Jun-14 23:58N 45°23' E 012°51'0 0.1
2018-Jun-14 23:28N 45°23' E 012°51'0 0.0
2018-Jun-14 22:58N 45°23' E 012°51'0 0.0
2018-Jun-14 22:28N 45°23' E 012°51'0 0.0
2018-Jun-14 21:58N 45°23' E 012°51'0 0.0
2018-Jun-14 21:25N 45°23' E 012°51'0 0.0
2018-Jun-14 20:55N 45°23' E 012°51'0 0.0
2018-Jun-14 20:28N 45°23' E 012°51'0 0.0
2018-Jun-14 19:58N 45°23' E 012°51'0 0.0
2018-Jun-14 19:25N 45°23' E 012°51'0 0.0
2018-Jun-14 18:58N 45°23' E 012°51'0 0.0
2018-Jun-14 18:25N 45°23' E 012°51'0 0.0
2018-Jun-14 17:58N 45°23' E 012°51'0 0.0
2018-Jun-14 17:28N 45°23' E 012°51'0 0.0
2018-Jun-14 16:58N 45°23' E 012°51'0 0.0
2018-Jun-14 16:22N 45°23' E 012°51'0 0.0
2018-Jun-14 15:58N 45°23' E 012°51'0 0.0
2018-Jun-14 15:25N 45°23' E 012°51'0 0.1
2018-Jun-14 14:58N 45°23' E 012°51'0 0.0
2018-Jun-14 14:28N 45°23' E 012°51'0 0.0
2018-Jun-14 13:58N 45°23' E 012°51'0 0.0
2018-Jun-14 13:28N 45°23' E 012°51'0 0.0
2018-Jun-14 12:58N 45°23' E 012°51'0 0.0
2018-Jun-14 12:28N 45°23' E 012°51'0 0.0
2018-Jun-14 11:58N 45°23' E 012°51'0 0.1
2018-Jun-14 11:25N 45°23' E 012°51'0 0.0
2018-Jun-14 10:58N 45°23' E 012°51'0 0.0
2018-Jun-14 10:28N 45°23' E 012°51'0 0.0
2018-Jun-14 09:55N 45°23' E 012°51'0 0.1
2018-Jun-14 09:22N 45°23' E 012°51'0 0.1
2018-Jun-14 08:55N 45°23' E 012°51'0 0.1
2018-Jun-14 08:28N 45°23' E 012°51'0 0.0
2018-Jun-14 07:58N 45°23' E 012°51'0 0.0
2018-Jun-14 07:28N 45°23' E 012°51'0 0.0
2018-Jun-14 06:58N 45°23' E 012°51'0 0.0
2018-Jun-14 06:28N 45°23' E 012°51'0 0.0
2018-Jun-14 05:58N 45°23' E 012°51'0 0.0
2018-Jun-14 05:28N 45°23' E 012°51'0 0.0
2018-Jun-14 04:58N 45°23' E 012°51'0 0.0
2018-Jun-14 04:28N 45°23' E 012°51'0 0.0
2018-Jun-14 03:58N 45°23' E 012°51'0 0.0
2018-Jun-14 03:28N 45°23' E 012°51'0 0.0
2018-Jun-14 02:58N 45°23' E 012°51'0 0.0
2018-Jun-14 02:28N 45°23' E 012°51'0 0.0
2018-Jun-14 01:58N 45°23' E 012°51'0 0.0
2018-Jun-14 01:28N 45°23' E 012°51'0 0.0
2018-Jun-14 00:55N 45°23' E 012°51'0 0.0
2018-Jun-14 00:28N 45°23' E 012°51'0 0.0
2018-Jun-13 23:55N 45°23' E 012°51'0 0.0
2018-Jun-13 23:25N 45°23' E 012°51'0 0.0
2018-Jun-13 22:58N 45°23' E 012°51'0 0.0
2018-Jun-13 22:28N 45°23' E 012°51'0 0.0
2018-Jun-13 21:58N 45°23' E 012°51'0 0.0
2018-Jun-13 21:28N 45°23' E 012°51'0 0.0
2018-Jun-13 20:58N 45°23' E 012°51'0 0.0
2018-Jun-13 20:28N 45°23' E 012°51'0 0.0
2018-Jun-13 19:58N 45°23' E 012°51'0 0.0
2018-Jun-13 19:25N 45°23' E 012°51'0 0.0
2018-Jun-13 18:55N 45°23' E 012°51'0 0.0
2018-Jun-13 18:28N 45°23' E 012°51'0 0.0
2018-Jun-13 17:58N 45°23' E 012°51'0 0.0
2018-Jun-13 17:28N 45°23' E 012°51'0 0.0
2018-Jun-13 16:58N 45°23' E 012°51'0 0.0
2018-Jun-13 16:25N 45°23' E 012°51'0 0.0
2018-Jun-13 15:58N 45°23' E 012°51'0 0.0
2018-Jun-13 15:28N 45°23' E 012°51'0 0.0
2018-Jun-13 14:58N 45°23' E 012°51'0 0.0
2018-Jun-13 14:22N 45°23' E 012°51'0 0.0
2018-Jun-13 13:58N 45°23' E 012°51'0 0.0
2018-Jun-13 13:22N 45°23' E 012°51'0 0.0
2018-Jun-13 12:58N 45°23' E 012°51'0 0.0
2018-Jun-13 12:28N 45°23' E 012°51'0 0.1
2018-Jun-13 11:55N 45°23' E 012°51'0 0.0
2018-Jun-13 11:28N 45°23' E 012°51'0 0.0
2018-Jun-13 10:52N 45°23' E 012°51'0 0.0
2018-Jun-13 10:22N 45°23' E 012°51'0 0.0
2018-Jun-13 09:55N 45°23' E 012°51'0 0.0
2018-Jun-13 09:28N 45°23' E 012°51'0 0.0
2018-Jun-13 08:55N 45°23' E 012°51'0 0.0
2018-Jun-13 08:19N 45°23' E 012°51'0 0.1
2018-Jun-13 07:55N 45°23' E 012°51'0 0.0
2018-Jun-13 07:28N 45°23' E 012°51'0 0.0
2018-Jun-13 06:58N 45°23' E 012°51'0 0.0
2018-Jun-13 06:28N 45°23' E 012°51'0 0.0
2018-Jun-13 05:52N 45°23' E 012°51'0 0.1
2018-Jun-13 05:28N 45°23' E 012°51'0 0.0
2018-Jun-13 04:58N 45°23' E 012°51'0 0.0
2018-Jun-13 04:28N 45°23' E 012°51'0 0.1
2018-Jun-13 03:58N 45°23' E 012°51'0 0.1
2018-Jun-13 03:22N 45°23' E 012°51'0 0.1
2018-Jun-13 02:49N 45°23' E 012°51'0 0.1
2018-Jun-13 02:28N 45°23' E 012°51'0 0.0
2018-Jun-13 01:58N 45°23' E 012°51'0 0.0
2018-Jun-13 01:22N 45°23' E 012°51'0 0.0
2018-Jun-13 00:58N 45°23' E 012°51'0 0.1
2018-Jun-13 00:28N 45°23' E 012°51'0 0.0
2018-Jun-12 23:52N 45°23' E 012°51'0 0.1
2018-Jun-12 23:22N 45°23' E 012°51'0 0.1
2018-Jun-12 22:58N 45°23' E 012°51'0 0.1
2018-Jun-12 22:25N 45°23' E 012°51'0 0.1
2018-Jun-12 21:55N 45°23' E 012°51'0 0.0
2018-Jun-12 21:28N 45°23' E 012°51'0 0.0
2018-Jun-12 20:58N 45°23' E 012°51'0 0.1
2018-Jun-12 20:28N 45°23' E 012°51'0 0.0
2018-Jun-12 19:58N 45°23' E 012°51'  
Track history (hours):
 
Tides and Currents Weather Stations Pressure Air Temp Water Temp Dewpoint Dewpoint Depression Visibility Wind Speed Wind Dir Waves Ship Positions

Vinga

Last reported at 2018-Jun-22 19:53 UTC. Time now 2018-Jun-24 05:12 UTC.
Position N 36°44' E 023°56'.

Length 274 m; draft 9 m.

Type: Tanker. MMSI: 257792000.

Date/timePositionNaut miles runAvg speedWind from/ knotsBaromVisibWave heightAir tempDewpointWater temp
2018-Jun-22 19:53N 36°44' E 023°56'512.8
2018-Jun-22 19:30N 36°40' E 023°52'612.9
2018-Jun-22 19:00N 36°35' E 023°47'  
2018-Jun-20 11:25N 44°32' E 013°38'513.3
2018-Jun-20 11:00N 44°37' E 013°34'713.3
2018-Jun-20 10:30N 44°42' E 013°28'713.3
2018-Jun-20 10:00N 44°48' E 013°23'713.1
2018-Jun-20 09:30N 44°53' E 013°18'613.2
2018-Jun-20 09:00N 44°59' E 013°13'713.5
2018-Jun-20 08:30N 45°04' E 013°07'713.4
2018-Jun-20 08:00N 45°10' E 013°03'713.5
2018-Jun-20 07:30N 45°17' E 013°01'713.7
2018-Jun-20 07:00N 45°23' E 012°59'612.7
2018-Jun-20 06:30N 45°28' E 013°05'714.2
2018-Jun-20 06:00N 45°32' E 013°14'714.1
2018-Jun-20 05:30N 45°35' E 013°23'713.7
2018-Jun-20 05:00N 45°37' E 013°32'612.5
2018-Jun-20 04:30N 45°37' E 013°41'3 5.4
2018-Jun-20 03:58N 45°37' E 013°45'1 1.0
2018-Jun-20 02:57N 45°37' E 013°47'0 0.0
2018-Jun-20 02:21N 45°37' E 013°47'0 0.0
2018-Jun-20 01:51N 45°37' E 013°47'0 0.0
2018-Jun-20 01:21N 45°37' E 013°47'0 0.0
2018-Jun-20 00:45N 45°37' E 013°47'0 0.0
2018-Jun-20 00:27N 45°37' E 013°47'0 0.0
2018-Jun-19 23:57N 45°37' E 013°47'0 0.0
2018-Jun-19 23:27N 45°37' E 013°47'0 0.0
2018-Jun-19 22:51N 45°37' E 013°47'0 0.0
2018-Jun-19 22:27N 45°37' E 013°47'0 0.0
2018-Jun-19 21:27N 45°37' E 013°47'0 0.0
2018-Jun-19 20:57N 45°37' E 013°47'0 0.0
2018-Jun-19 20:27N 45°37' E 013°47'0 0.0
2018-Jun-19 19:57N 45°37' E 013°47'0 0.0
2018-Jun-18 17:13N 45°37' E 013°47'0 0.2
2018-Jun-18 17:00N 45°37' E 013°46'0 0.9
2018-Jun-18 16:30N 45°37' E 013°46'2 4.6
2018-Jun-18 16:00N 45°37' E 013°43'2 3.0
2018-Jun-18 15:30N 45°37' E 013°40'1 1.4
2018-Jun-18 15:00N 45°38' E 013°41'0 0.0
2018-Jun-18 14:30N 45°38' E 013°41'0 0.0
2018-Jun-18 14:00N 45°38' E 013°41'0 0.0
2018-Jun-18 13:30N 45°38' E 013°41'0 0.0
2018-Jun-18 13:00N 45°38' E 013°41'0 0.0
2018-Jun-18 12:30N 45°38' E 013°41'0 0.0
2018-Jun-18 11:54N 45°38' E 013°41'0 0.0
2018-Jun-18 11:24N 45°38' E 013°41'0 0.0
2018-Jun-18 11:00N 45°38' E 013°41'0 0.0
2018-Jun-18 10:30N 45°38' E 013°41'0 0.0
2018-Jun-18 09:57N 45°38' E 013°41'0 0.0
2018-Jun-18 09:30N 45°38' E 013°41'0 0.0
2018-Jun-18 08:57N 45°38' E 013°41'0 0.0
2018-Jun-18 08:24N 45°38' E 013°41'0 0.1
2018-Jun-18 08:00N 45°38' E 013°41'0 0.1
2018-Jun-18 07:30N 45°38' E 013°41'0 0.0
2018-Jun-18 07:00N 45°38' E 013°41'0 0.0
2018-Jun-18 06:30N 45°38' E 013°41'0 0.0
2018-Jun-18 06:00N 45°38' E 013°41'0 0.0
2018-Jun-18 05:27N 45°38' E 013°41'0 0.0
2018-Jun-18 04:57N 45°38' E 013°41'0 0.1
2018-Jun-18 04:30N 45°38' E 013°41'0 0.0
2018-Jun-18 04:00N 45°38' E 013°41'0 0.0
2018-Jun-18 03:30N 45°38' E 013°41'0 0.0
2018-Jun-18 02:51N 45°38' E 013°41'0 0.0
2018-Jun-18 02:30N 45°38' E 013°41'0 0.0
2018-Jun-18 02:00N 45°38' E 013°41'0 0.0
2018-Jun-18 01:30N 45°38' E 013°41'0 0.0
2018-Jun-18 00:54N 45°38' E 013°41'0 0.0
2018-Jun-18 00:30N 45°38' E 013°41'0 0.0
2018-Jun-18 00:00N 45°38' E 013°41'0 0.0
2018-Jun-17 23:30N 45°38' E 013°41'0 0.0
2018-Jun-17 23:00N 45°38' E 013°41'0 0.0
2018-Jun-17 22:30N 45°38' E 013°41'0 0.0
2018-Jun-17 22:00N 45°38' E 013°41'0 0.0
2018-Jun-17 21:30N 45°38' E 013°41'0 0.0
2018-Jun-17 21:00N 45°38' E 013°41'0 0.0
2018-Jun-17 20:30N 45°38' E 013°41'0 0.0
2018-Jun-17 20:00N 45°38' E 013°41'0 0.0
2018-Jun-17 19:30N 45°38' E 013°41'0 0.0
2018-Jun-17 19:00N 45°38' E 013°41'0 0.0
2018-Jun-17 18:30N 45°38' E 013°41'0 0.0
2018-Jun-17 18:00N 45°38' E 013°41'0 0.0
2018-Jun-17 17:18N 45°38' E 013°41'0 0.0
2018-Jun-17 16:57N 45°38' E 013°41'0 0.0
2018-Jun-17 16:30N 45°38' E 013°41'0 0.0
2018-Jun-17 16:00N 45°38' E 013°41'0 0.0
2018-Jun-17 15:27N 45°38' E 013°41'0 0.0
2018-Jun-17 15:00N 45°38' E 013°41'0 0.0
2018-Jun-17 14:30N 45°38' E 013°41'0 0.0
2018-Jun-17 14:00N 45°38' E 013°41'0 0.0
2018-Jun-17 13:30N 45°38' E 013°41'0 0.0
2018-Jun-17 13:00N 45°38' E 013°41'0 0.1
2018-Jun-17 12:30N 45°38' E 013°41'0 0.1
2018-Jun-17 12:00N 45°38' E 013°41'0 0.0
2018-Jun-17 11:30N 45°38' E 013°41'0 0.0
2018-Jun-17 11:00N 45°38' E 013°41'0 0.0
2018-Jun-17 10:30N 45°38' E 013°41'0 0.0
2018-Jun-17 09:57N 45°38' E 013°41'0 0.0
2018-Jun-17 09:24N 45°38' E 013°41'0 0.0
2018-Jun-17 08:57N 45°38' E 013°41'0 0.0
2018-Jun-17 08:30N 45°38' E 013°41'0 0.0
2018-Jun-17 08:00N 45°38' E 013°41'0 0.0
2018-Jun-17 07:30N 45°38' E 013°41'0 0.0
2018-Jun-17 07:00N 45°38' E 013°41'0 0.0
2018-Jun-17 06:30N 45°38' E 013°41'0 0.0
2018-Jun-17 06:00N 45°38' E 013°41'0 0.0
2018-Jun-17 05:27N 45°38' E 013°41'0 0.0
2018-Jun-17 05:00N 45°38' E 013°41'0 0.0
2018-Jun-17 04:27N 45°38' E 013°41'0 0.0
2018-Jun-17 04:00N 45°38' E 013°41'0 0.0
2018-Jun-17 03:27N 45°38' E 013°41'0 0.0
2018-Jun-17 02:54N 45°38' E 013°41'0 0.0
2018-Jun-17 02:18N 45°38' E 013°41'0 0.0
2018-Jun-17 02:00N 45°38' E 013°41'0 0.0
2018-Jun-17 01:30N 45°38' E 013°41'0 0.0
2018-Jun-17 01:00N 45°38' E 013°41'0 0.0
2018-Jun-17 00:30N 45°38' E 013°41'0 0.0
2018-Jun-17 00:00N 45°38' E 013°41'0 0.0
2018-Jun-16 23:24N 45°38' E 013°41'0 0.0
2018-Jun-16 22:57N 45°38' E 013°41'0 0.0
2018-Jun-16 22:30N 45°38' E 013°41'0 0.0
2018-Jun-16 22:00N 45°38' E 013°41'0 0.0
2018-Jun-16 21:30N 45°38' E 013°41'0 0.0
2018-Jun-16 21:00N 45°38' E 013°41'0 0.0
2018-Jun-16 20:30N 45°38' E 013°41'0 0.0
2018-Jun-16 20:00N 45°38' E 013°41'0 0.1
2018-Jun-16 19:30N 45°38' E 013°41'0 0.1
2018-Jun-16 19:01N 45°38' E 013°41'2 3.5
2018-Jun-16 18:30N 45°37' E 013°39'4 7.3
2018-Jun-16 18:00N 45°36' E 013°34'4 8.6
2018-Jun-16 17:31N 45°34' E 013°28'3 6.7
2018-Jun-16 17:00N 45°31' E 013°25'610.9
2018-Jun-16 16:30N 45°29' E 013°18'611.5
2018-Jun-16 16:00N 45°27' E 013°11'611.9
2018-Jun-16 15:30N 45°25' E 013°03'611.6
2018-Jun-16 15:01N 45°24' E 012°54'2 4.5
2018-Jun-16 14:31N 45°23' E 012°51'0 0.1
2018-Jun-16 13:58N 45°23' E 012°51'0 0.0
2018-Jun-16 13:28N 45°23' E 012°51'0 0.0
2018-Jun-16 12:55N 45°23' E 012°51'0 0.0
2018-Jun-16 12:28N 45°23' E 012°51'0 0.0
2018-Jun-16 11:58N 45°23' E 012°51'0 0.0
2018-Jun-16 11:25N 45°23' E 012°51'0 0.0
2018-Jun-16 10:58N 45°23' E 012°51'0 0.0
2018-Jun-16 10:28N 45°23' E 012°51'0 0.0
2018-Jun-16 09:52N 45°23' E 012°51'0 0.0
2018-Jun-16 09:25N 45°23' E 012°51'0 0.0
2018-Jun-16 08:55N 45°23' E 012°51'0 0.0
2018-Jun-16 08:28N 45°23' E 012°51'0 0.0
2018-Jun-16 07:58N 45°23' E 012°51'0 0.0
2018-Jun-16 07:28N 45°23' E 012°51'0 0.0
2018-Jun-16 06:55N 45°23' E 012°51'0 0.0
2018-Jun-16 06:22N 45°23' E 012°51'0 0.0
2018-Jun-16 05:58N 45°23' E 012°51'0 0.0
2018-Jun-16 05:22N 45°23' E 012°51'0 0.0
2018-Jun-16 04:55N 45°23' E 012°51'0 0.0
2018-Jun-16 04:28N 45°23' E 012°51'0 0.0
2018-Jun-16 03:58N 45°23' E 012°51'0 0.1
2018-Jun-16 03:28N 45°23' E 012°51'0 0.0
2018-Jun-16 02:58N 45°23' E 012°51'0 0.0
2018-Jun-16 02:22N 45°23' E 012°51'0 0.0
2018-Jun-16 01:52N 45°23' E 012°51'0 0.0
2018-Jun-16 01:25N 45°23' E 012°51'0 0.0
2018-Jun-16 00:55N 45°23' E 012°51'0 0.1
2018-Jun-16 00:28N 45°23' E 012°51'0 0.1
2018-Jun-15 23:58N 45°23' E 012°51'0 0.1
2018-Jun-15 23:28N 45°23' E 012°51'0 0.0
2018-Jun-15 22:58N 45°23' E 012°51'0 0.0
2018-Jun-15 22:25N 45°23' E 012°51'0 0.0
2018-Jun-15 21:58N 45°23' E 012°51'0 0.0
2018-Jun-15 21:28N 45°23' E 012°51'0 0.0
2018-Jun-15 20:58N 45°23' E 012°51'0 0.0
2018-Jun-15 20:25N 45°23' E 012°51'0 0.0
2018-Jun-15 19:58N 45°23' E 012°51'0 0.1
2018-Jun-15 19:28N 45°23' E 012°51'0 0.0
2018-Jun-15 18:58N 45°23' E 012°51'0 0.0
2018-Jun-15 18:22N 45°23' E 012°51'0 0.0
2018-Jun-15 17:49N 45°23' E 012°51'0 0.0
2018-Jun-15 17:28N 45°23' E 012°51'0 0.0
2018-Jun-15 16:58N 45°23' E 012°51'0 0.1
2018-Jun-15 16:28N 45°23' E 012°51'0 0.0
2018-Jun-15 15:58N 45°23' E 012°51'0 0.0
2018-Jun-15 15:28N 45°23' E 012°51'0 0.0
2018-Jun-15 14:58N 45°23' E 012°51'0 0.0
2018-Jun-15 14:19N 45°23' E 012°51'0 0.0
2018-Jun-15 13:52N 45°23' E 012°51'0 0.0
2018-Jun-15 13:22N 45°23' E 012°51'0 0.0
2018-Jun-15 12:58N 45°23' E 012°51'0 0.0
2018-Jun-15 12:28N 45°23' E 012°51'0 0.0
2018-Jun-15 11:55N 45°23' E 012°51'0 0.0
2018-Jun-15 11:16N 45°23' E 012°51'0 0.0
2018-Jun-15 10:58N 45°23' E 012°51'0 0.0
2018-Jun-15 10:22N 45°23' E 012°51'0 0.0
2018-Jun-15 09:52N 45°23' E 012°51'0 0.0
2018-Jun-15 09:25N 45°23' E 012°51'0 0.0
2018-Jun-15 08:58N 45°23' E 012°51'0 0.0
2018-Jun-15 08:28N 45°23' E 012°51'0 0.0
2018-Jun-15 07:55N 45°23' E 012°51'0 0.0
2018-Jun-15 07:28N 45°23' E 012°51'0 0.0
2018-Jun-15 06:55N 45°23' E 012°51'0 0.0
2018-Jun-15 06:25N 45°23' E 012°51'0 0.0
2018-Jun-15 05:58N 45°23' E 012°51'0 0.0
2018-Jun-15 05:28N 45°23' E 012°51'0 0.0
2018-Jun-15 04:52N 45°23' E 012°51'0 0.0
2018-Jun-15 04:28N 45°23' E 012°51'0 0.0
2018-Jun-15 03:52N 45°23' E 012°51'0 0.0
2018-Jun-15 03:28N 45°23' E 012°51'0 0.0
2018-Jun-15 02:58N 45°23' E 012°51'0 0.0
2018-Jun-15 02:28N 45°23' E 012°51'0 0.0
2018-Jun-15 01:58N 45°23' E 012°51'0 0.0
2018-Jun-15 01:28N 45°23' E 012°51'0 0.0
2018-Jun-15 00:58N 45°23' E 012°51'0 0.0
2018-Jun-15 00:25N 45°23' E 012°51'0 0.1
2018-Jun-14 23:58N 45°23' E 012°51'0 0.1
2018-Jun-14 23:28N 45°23' E 012°51'0 0.0
2018-Jun-14 22:58N 45°23' E 012°51'0 0.0
2018-Jun-14 22:28N 45°23' E 012°51'0 0.0
2018-Jun-14 21:58N 45°23' E 012°51'0 0.0
2018-Jun-14 21:25N 45°23' E 012°51'0 0.0
2018-Jun-14 20:55N 45°23' E 012°51'0 0.0
2018-Jun-14 20:28N 45°23' E 012°51'0 0.0
2018-Jun-14 19:58N 45°23' E 012°51'0 0.0
2018-Jun-14 19:25N 45°23' E 012°51'0 0.0
2018-Jun-14 18:58N 45°23' E 012°51'0 0.0
2018-Jun-14 18:25N 45°23' E 012°51'0 0.0
2018-Jun-14 17:58N 45°23' E 012°51'0 0.0
2018-Jun-14 17:28N 45°23' E 012°51'0 0.0
2018-Jun-14 16:58N 45°23' E 012°51'0 0.0
2018-Jun-14 16:22N 45°23' E 012°51'0 0.0
2018-Jun-14 15:58N 45°23' E 012°51'0 0.0
2018-Jun-14 15:25N 45°23' E 012°51'0 0.1
2018-Jun-14 14:58N 45°23' E 012°51'0 0.0
2018-Jun-14 14:28N 45°23' E 012°51'0 0.0
2018-Jun-14 13:58N 45°23' E 012°51'0 0.0
2018-Jun-14 13:28N 45°23' E 012°51'0 0.0
2018-Jun-14 12:58N 45°23' E 012°51'0 0.0
2018-Jun-14 12:28N 45°23' E 012°51'0 0.0
2018-Jun-14 11:58N 45°23' E 012°51'0 0.1
2018-Jun-14 11:25N 45°23' E 012°51'0 0.0
2018-Jun-14 10:58N 45°23' E 012°51'0 0.0
2018-Jun-14 10:28N 45°23' E 012°51'0 0.0
2018-Jun-14 09:55N 45°23' E 012°51'0 0.1
2018-Jun-14 09:22N 45°23' E 012°51'0 0.1
2018-Jun-14 08:55N 45°23' E 012°51'0 0.1
2018-Jun-14 08:28N 45°23' E 012°51'0 0.0
2018-Jun-14 07:58N 45°23' E 012°51'0 0.0
2018-Jun-14 07:28N 45°23' E 012°51'0 0.0
2018-Jun-14 06:58N 45°23' E 012°51'0 0.0
2018-Jun-14 06:28N 45°23' E 012°51'0 0.0
2018-Jun-14 05:58N 45°23' E 012°51'0 0.0
2018-Jun-14 05:28N 45°23' E 012°51'0 0.0
2018-Jun-14 04:58N 45°23' E 012°51'0 0.0
2018-Jun-14 04:28N 45°23' E 012°51'0 0.0
2018-Jun-14 03:58N 45°23' E 012°51'0 0.0
2018-Jun-14 03:28N 45°23' E 012°51'0 0.0
2018-Jun-14 02:58N 45°23' E 012°51'0 0.0
2018-Jun-14 02:28N 45°23' E 012°51'0 0.0
2018-Jun-14 01:58N 45°23' E 012°51'0 0.0
2018-Jun-14 01:28N 45°23' E 012°51'0 0.0
2018-Jun-14 00:55N 45°23' E 012°51'0 0.0
2018-Jun-14 00:28N 45°23' E 012°51'0 0.0
2018-Jun-13 23:55N 45°23' E 012°51'0 0.0
2018-Jun-13 23:25N 45°23' E 012°51'0 0.0
2018-Jun-13 22:58N 45°23' E 012°51'0 0.0
2018-Jun-13 22:28N 45°23' E 012°51'0 0.0
2018-Jun-13 21:58N 45°23' E 012°51'0 0.0
2018-Jun-13 21:28N 45°23' E 012°51'0 0.0
2018-Jun-13 20:58N 45°23' E 012°51'0 0.0
2018-Jun-13 20:28N 45°23' E 012°51'0 0.0
2018-Jun-13 19:58N 45°23' E 012°51'0 0.0
2018-Jun-13 19:25N 45°23' E 012°51'0 0.0
2018-Jun-13 18:55N 45°23' E 012°51'0 0.0
2018-Jun-13 18:28N 45°23' E 012°51'0 0.0
2018-Jun-13 17:58N 45°23' E 012°51'0 0.0
2018-Jun-13 17:28N 45°23' E 012°51'0 0.0
2018-Jun-13 16:58N 45°23' E 012°51'0 0.0
2018-Jun-13 16:25N 45°23' E 012°51'0 0.0
2018-Jun-13 15:58N 45°23' E 012°51'0 0.0
2018-Jun-13 15:28N 45°23' E 012°51'0 0.0
2018-Jun-13 14:58N 45°23' E 012°51'0 0.0
2018-Jun-13 14:22N 45°23' E 012°51'0 0.0
2018-Jun-13 13:58N 45°23' E 012°51'0 0.0
2018-Jun-13 13:22N 45°23' E 012°51'0 0.0
2018-Jun-13 12:58N 45°23' E 012°51'0 0.0
2018-Jun-13 12:28N 45°23' E 012°51'0 0.1
2018-Jun-13 11:55N 45°23' E 012°51'0 0.0
2018-Jun-13 11:28N 45°23' E 012°51'0 0.0
2018-Jun-13 10:52N 45°23' E 012°51'0 0.0
2018-Jun-13 10:22N 45°23' E 012°51'0 0.0
2018-Jun-13 09:55N 45°23' E 012°51'0 0.0
2018-Jun-13 09:28N 45°23' E 012°51'0 0.0
2018-Jun-13 08:55N 45°23' E 012°51'0 0.0
2018-Jun-13 08:19N 45°23' E 012°51'0 0.1
2018-Jun-13 07:55N 45°23' E 012°51'0 0.0
2018-Jun-13 07:28N 45°23' E 012°51'0 0.0
2018-Jun-13 06:58N 45°23' E 012°51'0 0.0
2018-Jun-13 06:28N 45°23' E 012°51'0 0.0
2018-Jun-13 05:52N 45°23' E 012°51'0 0.1
2018-Jun-13 05:28N 45°23' E 012°51'0 0.0
2018-Jun-13 04:58N 45°23' E 012°51'0 0.0
2018-Jun-13 04:28N 45°23' E 012°51'0 0.1
2018-Jun-13 03:58N 45°23' E 012°51'0 0.1
2018-Jun-13 03:22N 45°23' E 012°51'0 0.1
2018-Jun-13 02:49N 45°23' E 012°51'0 0.1
2018-Jun-13 02:28N 45°23' E 012°51'0 0.0
2018-Jun-13 01:58N 45°23' E 012°51'0 0.0
2018-Jun-13 01:22N 45°23' E 012°51'0 0.0
2018-Jun-13 00:58N 45°23' E 012°51'0 0.1
2018-Jun-13 00:28N 45°23' E 012°51'0 0.0
2018-Jun-12 23:52N 45°23' E 012°51'0 0.1
2018-Jun-12 23:22N 45°23' E 012°51'0 0.1
2018-Jun-12 22:58N 45°23' E 012°51'0 0.1
2018-Jun-12 22:25N 45°23' E 012°51'0 0.1
2018-Jun-12 21:55N 45°23' E 012°51'0 0.0
2018-Jun-12 21:28N 45°23' E 012°51'0 0.0
2018-Jun-12 20:58N 45°23' E 012°51'0 0.1
2018-Jun-12 20:28N 45°23' E 012°51'0 0.0
2018-Jun-12 19:58N 45°23' E 012°51'  

Dump ship's entire track history